Alamo, CA (94507)

11:26 PM PDT on September 19, 2014 (GMT -0700)
Alamo | Change Station
CLOSE
Current Station
Personal Weather Station
Location: Alamo, CA
Elevation: 318 ft
Nearby Weather Stations

Elev 318 ft 37.85 °N, 122.02 °W | Updated 3 minutes ago

Clear
Clear
64.2 °F
Feels Like 64.2 °F
N
0.0
Wind Variable Wind from NNW

Today
High -- | Low -- °F
--% Chance of Precip.
Yesterday
High -- | Low -- °F
Precip. -- in
6:53 AM 7:09 PM
Waning Crescent, 14% visible
Pressure 29.82 in
Visibility 10.0 miles
Clouds Clear
Dew Point 57 °F
Humidity 77%
Rainfall 0.00 in
Snow Depth 0 in , 1 in , 0 in
UV 0 out of 12
Pollen 4.70 out of 12
Ozone Good
PM2.5 Good
Flu Activity Not available.
METAR KCCR 200553Z 18008KT 10SM CLR 21/14 A2986 RMK AO2 SLP098 T02060144 10272 20206 50007

More Conditions Fewer Conditions

Pressure 29.82 in
Visibility 10.0 miles
Clouds Clear
Dew Point 57 °F
Humidity 77%
Rainfall 0.00 in
Snow Depth 0 in , 1 in , 0 in
UV 0 out of 12
Pollen 4.70 out of 12
Ozone Good
PM2.5 Good
Flu Activity Not available.
METAR KCCR 200553Z 18008KT 10SM CLR 21/14 A2986 RMK AO2 SLP098 T02060144 10272 20206 50007

More Conditions Fewer Conditions

10-Day Weather Forecast

Almanac

Astronomy

Sep. 19, 2014 Rise Set
Actual Time 6:53 AM PDT 7:09 PM PDT
Civil Twilight 6:27 AM PDT 7:35 PM PDT
Nautical Twilight 5:56 AM PDT 8:06 PM PDT
Astronomical Twilight 5:24 AM PDT 8:37 PM PDT
Moon 2:46 AM PDT (9/19) 4:38 PM PDT (9/19)
Length of Visible Light 13h 08m
Length of Day
12h 16m
Tomorrow will be 2m 24s shorter.
Waning Crescent, 14% of the Moon is Illuminated
Sep 20
Waning Crescent
Sep 24
New
Oct 1
First Quarter
Oct 8
Full
Oct 15
Last Quarter

Yesterday's Extremes

State Highs State Lows

Community

WunderPhotos

Upload Photos

1,754,779 photos uploaded!

WunderBlogs® & News

Nearby

Air Quality

  Air Quality AQ Index Pollutant
Yesterday Good
OZONE
Yesterday Good
PM2.5
Current Good
OZONE
Current Good
PM2.5
Friday Good
OZONE
Saturday Moderate
PM2.5
Sunday Moderate
PM2.5
Monday Good
OZONE
Tuesday Good
OZONE
Wednesday Moderate
OZONE

Snow Depth

Station Depth Elevation
Heavenly Valley 0 in 8850 ft
Monitor Pass 1 in 8350 ft
Tahoe City Cross 0 in 6750 ft
Echo Peak 0 in 7800 ft
Summit Meadow 0 in 9122 ft

Earthquake Activity

City Distance Mag. Time & Date
Livermore, California 19 miles 2.6 3:37 AM PDT
2014-09-19
The Geysers, California 72 miles 2.5 11:29 PM PDT
2014-09-17
Minimum magnitude displayed is 2.5.

Coastal Water Temperatures

Place Temperature
No Stations Reporting

Nearby Weather Stations